sensor_id;sensor_type;location;lat;lon;timestamp;P1;durP1;ratioP1;P2;durP2;ratioP2
16173;SDS011;14031;50.158;8.626;2022-07-23T00:00:05;6.10;;;5.13;;
16173;SDS011;14031;50.158;8.626;2022-07-23T00:02:33;6.13;;;5.82;;
16173;SDS011;14031;50.158;8.626;2022-07-23T00:05:00;5.18;;;4.88;;
16173;SDS011;14031;50.158;8.626;2022-07-23T00:07:27;5.22;;;4.70;;
16173;SDS011;14031;50.158;8.626;2022-07-23T00:09:54;5.10;;;4.80;;
16173;SDS011;14031;50.158;8.626;2022-07-23T00:12:22;4.90;;;4.60;;
16173;SDS011;14031;50.158;8.626;2022-07-23T00:14:49;5.18;;;4.88;;
16173;SDS011;14031;50.158;8.626;2022-07-23T00:17:17;5.28;;;4.93;;
16173;SDS011;14031;50.158;8.626;2022-07-23T00:19:44;6.00;;;4.80;;
16173;SDS011;14031;50.158;8.626;2022-07-23T00:22:11;5.50;;;5.10;;
16173;SDS011;14031;50.158;8.626;2022-07-23T00:24:38;5.45;;;4.65;;
16173;SDS011;14031;50.158;8.626;2022-07-23T00:27:05;5.57;;;4.95;;
16173;SDS011;14031;50.158;8.626;2022-07-23T00:29:33;5.32;;;4.93;;
16173;SDS011;14031;50.158;8.626;2022-07-23T00:32:00;5.35;;;4.85;;
16173;SDS011;14031;50.158;8.626;2022-07-23T00:34:27;6.63;;;5.05;;
16173;SDS011;14031;50.158;8.626;2022-07-23T00:36:54;5.40;;;5.10;;
16173;SDS011;14031;50.158;8.626;2022-07-23T00:39:21;5.30;;;4.85;;
16173;SDS011;14031;50.158;8.626;2022-07-23T00:41:48;4.95;;;4.57;;
16173;SDS011;14031;50.158;8.626;2022-07-23T00:44:16;6.22;;;4.65;;
16173;SDS011;14031;50.158;8.626;2022-07-23T00:46:48;4.90;;;4.47;;
16173;SDS011;14031;50.158;8.626;2022-07-23T00:49:18;7.30;;;4.80;;
16173;SDS011;14031;50.158;8.626;2022-07-23T00:51:45;5.15;;;4.72;;
16173;SDS011;14031;50.158;8.626;2022-07-23T00:54:13;9.85;;;4.75;;
16173;SDS011;14031;50.158;8.626;2022-07-23T00:56:40;5.43;;;4.97;;
16173;SDS011;14031;50.158;8.626;2022-07-23T00:59:08;6.03;;;5.50;;
16173;SDS011;14031;50.158;8.626;2022-07-23T01:01:35;5.00;;;4.70;;
16173;SDS011;14031;50.158;8.626;2022-07-23T01:04:04;5.03;;;4.72;;
16173;SDS011;14031;50.158;8.626;2022-07-23T01:06:31;4.50;;;4.15;;
16173;SDS011;14031;50.158;8.626;2022-07-23T01:09:03;4.88;;;4.47;;
16173;SDS011;14031;50.158;8.626;2022-07-23T01:11:31;5.63;;;5.05;;
16173;SDS011;14031;50.158;8.626;2022-07-23T01:13:58;7.35;;;4.72;;
16173;SDS011;14031;50.158;8.626;2022-07-23T01:16:25;6.07;;;5.68;;
16173;SDS011;14031;50.158;8.626;2022-07-23T01:18:52;4.72;;;4.45;;
16173;SDS011;14031;50.158;8.626;2022-07-23T01:21:20;4.60;;;4.18;;
16173;SDS011;14031;50.158;8.626;2022-07-23T01:23:49;5.40;;;5.00;;
16173;SDS011;14031;50.158;8.626;2022-07-23T01:26:16;7.85;;;5.15;;
16173;SDS011;14031;50.158;8.626;2022-07-23T01:28:43;5.60;;;5.18;;
16173;SDS011;14031;50.158;8.626;2022-07-23T01:31:10;5.20;;;4.90;;
16173;SDS011;14031;50.158;8.626;2022-07-23T01:33:37;5.10;;;4.80;;
16173;SDS011;14031;50.158;8.626;2022-07-23T01:36:04;5.57;;;5.30;;
16173;SDS011;14031;50.158;8.626;2022-07-23T01:38:31;5.00;;;4.70;;
16173;SDS011;14031;50.158;8.626;2022-07-23T01:41:00;5.55;;;5.05;;
16173;SDS011;14031;50.158;8.626;2022-07-23T01:43:27;5.53;;;5.15;;
16173;SDS011;14031;50.158;8.626;2022-07-23T01:45:54;13.25;;;6.40;;
16173;SDS011;14031;50.158;8.626;2022-07-23T01:48:21;6.78;;;5.13;;
16173;SDS011;14031;50.158;8.626;2022-07-23T01:50:47;5.35;;;5.03;;
16173;SDS011;14031;50.158;8.626;2022-07-23T01:53:15;5.63;;;5.22;;
16173;SDS011;14031;50.158;8.626;2022-07-23T01:55:41;5.80;;;5.43;;
16173;SDS011;14031;50.158;8.626;2022-07-23T01:58:10;5.53;;;5.13;;
16173;SDS011;14031;50.158;8.626;2022-07-23T02:00:37;5.78;;;5.22;;
16173;SDS011;14031;50.158;8.626;2022-07-23T02:03:04;5.43;;;4.90;;
16173;SDS011;14031;50.158;8.626;2022-07-23T02:05:30;5.90;;;5.40;;
16173;SDS011;14031;50.158;8.626;2022-07-23T02:07:57;5.63;;;5.22;;
16173;SDS011;14031;50.158;8.626;2022-07-23T02:10:24;6.00;;;5.32;;
16173;SDS011;14031;50.158;8.626;2022-07-23T02:12:51;5.57;;;5.18;;
16173;SDS011;14031;50.158;8.626;2022-07-23T02:15:20;5.97;;;5.40;;
16173;SDS011;14031;50.158;8.626;2022-07-23T02:17:47;5.95;;;5.57;;
16173;SDS011;14031;50.158;8.626;2022-07-23T02:20:13;4.70;;;4.50;;
16173;SDS011;14031;50.158;8.626;2022-07-23T02:22:40;5.93;;;5.47;;
16173;SDS011;14031;50.158;8.626;2022-07-23T02:25:07;5.22;;;4.93;;
16173;SDS011;14031;50.158;8.626;2022-07-23T02:27:35;5.00;;;4.80;;
16173;SDS011;14031;50.158;8.626;2022-07-23T02:30:02;5.45;;;5.15;;
16173;SDS011;14031;50.158;8.626;2022-07-23T02:32:31;5.20;;;4.90;;
16173;SDS011;14031;50.158;8.626;2022-07-23T02:34:58;5.32;;;4.95;;
16173;SDS011;14031;50.158;8.626;2022-07-23T02:37:25;7.30;;;5.00;;
16173;SDS011;14031;50.158;8.626;2022-07-23T02:39:52;5.53;;;5.25;;
16173;SDS011;14031;50.158;8.626;2022-07-23T02:42:19;6.45;;;4.70;;
16173;SDS011;14031;50.158;8.626;2022-07-23T02:44:46;5.18;;;4.80;;
16173;SDS011;14031;50.158;8.626;2022-07-23T02:47:13;5.43;;;5.13;;
16173;SDS011;14031;50.158;8.626;2022-07-23T02:49:41;5.25;;;4.95;;
16173;SDS011;14031;50.158;8.626;2022-07-23T02:52:08;6.43;;;5.00;;
16173;SDS011;14031;50.158;8.626;2022-07-23T02:54:36;5.55;;;5.15;;
16173;SDS011;14031;50.158;8.626;2022-07-23T02:57:02;5.50;;;5.20;;
16173;SDS011;14031;50.158;8.626;2022-07-23T02:59:30;5.50;;;5.10;;
16173;SDS011;14031;50.158;8.626;2022-07-23T03:01:57;6.07;;;5.35;;
16173;SDS011;14031;50.158;8.626;2022-07-23T03:04:24;4.82;;;4.60;;
16173;SDS011;14031;50.158;8.626;2022-07-23T03:06:52;5.47;;;5.18;;
16173;SDS011;14031;50.158;8.626;2022-07-23T03:09:19;5.35;;;4.68;;
16173;SDS011;14031;50.158;8.626;2022-07-23T03:11:45;5.70;;;5.22;;
16173;SDS011;14031;50.158;8.626;2022-07-23T03:14:12;5.38;;;5.07;;
16173;SDS011;14031;50.158;8.626;2022-07-23T03:16:41;5.88;;;5.38;;
16173;SDS011;14031;50.158;8.626;2022-07-23T03:19:08;5.35;;;4.95;;
16173;SDS011;14031;50.158;8.626;2022-07-23T03:21:35;6.30;;;5.03;;
16173;SDS011;14031;50.158;8.626;2022-07-23T03:24:06;4.95;;;4.70;;
16173;SDS011;14031;50.158;8.626;2022-07-23T03:26:34;6.03;;;5.63;;
16173;SDS011;14031;50.158;8.626;2022-07-23T03:29:01;5.47;;;5.18;;
16173;SDS011;14031;50.158;8.626;2022-07-23T03:31:28;5.68;;;5.28;;
16173;SDS011;14031;50.158;8.626;2022-07-23T03:33:56;5.93;;;5.50;;
16173;SDS011;14031;50.158;8.626;2022-07-23T03:36:23;6.68;;;6.10;;
16173;SDS011;14031;50.158;8.626;2022-07-23T03:38:50;5.65;;;5.25;;
16173;SDS011;14031;50.158;8.626;2022-07-23T03:41:18;6.60;;;6.20;;
16173;SDS011;14031;50.158;8.626;2022-07-23T03:43:46;6.65;;;6.25;;
16173;SDS011;14031;50.158;8.626;2022-07-23T03:46:13;6.38;;;5.97;;
16173;SDS011;14031;50.158;8.626;2022-07-23T03:48:40;6.88;;;6.05;;
16173;SDS011;14031;50.158;8.626;2022-07-23T03:51:06;6.80;;;6.32;;
16173;SDS011;14031;50.158;8.626;2022-07-23T03:53:33;6.35;;;5.95;;
16173;SDS011;14031;50.158;8.626;2022-07-23T03:56:00;10.70;;;6.10;;
16173;SDS011;14031;50.158;8.626;2022-07-23T03:58:28;7.00;;;6.47;;
16173;SDS011;14031;50.158;8.626;2022-07-23T04:00:55;6.55;;;6.15;;
16173;SDS011;14031;50.158;8.626;2022-07-23T04:03:22;6.38;;;5.97;;
16173;SDS011;14031;50.158;8.626;2022-07-23T04:05:49;6.78;;;6.22;;
16173;SDS011;14031;50.158;8.626;2022-07-23T04:08:16;8.02;;;6.38;;
16173;SDS011;14031;50.158;8.626;2022-07-23T04:10:43;6.70;;;6.20;;
16173;SDS011;14031;50.158;8.626;2022-07-23T04:13:10;7.28;;;6.75;;
16173;SDS011;14031;50.158;8.626;2022-07-23T04:15:38;6.63;;;6.05;;
16173;SDS011;14031;50.158;8.626;2022-07-23T04:18:05;7.22;;;6.70;;
16173;SDS011;14031;50.158;8.626;2022-07-23T04:20:33;6.88;;;6.28;;
16173;SDS011;14031;50.158;8.626;2022-07-23T04:22:59;6.50;;;6.00;;
16173;SDS011;14031;50.158;8.626;2022-07-23T04:25:26;7.50;;;6.72;;
16173;SDS011;14031;50.158;8.626;2022-07-23T04:27:53;6.43;;;6.03;;
16173;SDS011;14031;50.158;8.626;2022-07-23T04:30:20;6.53;;;5.97;;
16173;SDS011;14031;50.158;8.626;2022-07-23T04:32:48;6.75;;;6.35;;
16173;SDS011;14031;50.158;8.626;2022-07-23T04:35:15;6.55;;;6.25;;
16173;SDS011;14031;50.158;8.626;2022-07-23T04:37:42;6.50;;;6.10;;
16173;SDS011;14031;50.158;8.626;2022-07-23T04:40:09;7.65;;;6.07;;
16173;SDS011;14031;50.158;8.626;2022-07-23T04:42:37;6.95;;;6.57;;
16173;SDS011;14031;50.158;8.626;2022-07-23T04:45:04;7.28;;;6.80;;
16173;SDS011;14031;50.158;8.626;2022-07-23T04:47:32;6.60;;;6.00;;
16173;SDS011;14031;50.158;8.626;2022-07-23T04:50:00;7.07;;;6.50;;
16173;SDS011;14031;50.158;8.626;2022-07-23T04:52:27;7.25;;;6.78;;
16173;SDS011;14031;50.158;8.626;2022-07-23T04:54:54;6.57;;;6.15;;
16173;SDS011;14031;50.158;8.626;2022-07-23T04:57:20;6.95;;;6.32;;
16173;SDS011;14031;50.158;8.626;2022-07-23T04:59:47;6.95;;;6.35;;
16173;SDS011;14031;50.158;8.626;2022-07-23T05:02:14;7.03;;;6.43;;
16173;SDS011;14031;50.158;8.626;2022-07-23T05:04:41;7.32;;;6.78;;
16173;SDS011;14031;50.158;8.626;2022-07-23T05:07:09;7.50;;;6.85;;
16173;SDS011;14031;50.158;8.626;2022-07-23T05:09:36;6.38;;;5.88;;
16173;SDS011;14031;50.158;8.626;2022-07-23T05:12:03;7.15;;;6.65;;
16173;SDS011;14031;50.158;8.626;2022-07-23T05:14:31;6.57;;;6.00;;
16173;SDS011;14031;50.158;8.626;2022-07-23T05:16:57;6.95;;;6.13;;
16173;SDS011;14031;50.158;8.626;2022-07-23T05:19:24;6.40;;;6.00;;
16173;SDS011;14031;50.158;8.626;2022-07-23T05:21:51;8.25;;;7.10;;
16173;SDS011;14031;50.158;8.626;2022-07-23T05:24:19;6.85;;;6.30;;
16173;SDS011;14031;50.158;8.626;2022-07-23T05:26:46;6.60;;;6.00;;
16173;SDS011;14031;50.158;8.626;2022-07-23T05:29:13;6.93;;;6.40;;
16173;SDS011;14031;50.158;8.626;2022-07-23T05:31:40;7.22;;;6.65;;
16173;SDS011;14031;50.158;8.626;2022-07-23T05:34:07;6.80;;;6.40;;
16173;SDS011;14031;50.158;8.626;2022-07-23T05:36:33;7.10;;;6.60;;
16173;SDS011;14031;50.158;8.626;2022-07-23T05:39:00;7.65;;;7.20;;
16173;SDS011;14031;50.158;8.626;2022-07-23T05:41:29;7.35;;;6.90;;
16173;SDS011;14031;50.158;8.626;2022-07-23T05:43:55;7.13;;;6.57;;
16173;SDS011;14031;50.158;8.626;2022-07-23T05:46:22;6.68;;;6.10;;
16173;SDS011;14031;50.158;8.626;2022-07-23T05:48:49;6.97;;;6.38;;
16173;SDS011;14031;50.158;8.626;2022-07-23T05:51:19;6.20;;;5.70;;
16173;SDS011;14031;50.158;8.626;2022-07-23T05:53:46;6.63;;;6.13;;
16173;SDS011;14031;50.158;8.626;2022-07-23T05:56:13;6.43;;;5.80;;
16173;SDS011;14031;50.158;8.626;2022-07-23T05:58:42;7.18;;;6.78;;
16173;SDS011;14031;50.158;8.626;2022-07-23T06:01:09;10.90;;;9.90;;
16173;SDS011;14031;50.158;8.626;2022-07-23T06:03:36;6.72;;;6.22;;
16173;SDS011;14031;50.158;8.626;2022-07-23T06:06:04;9.60;;;8.75;;
16173;SDS011;14031;50.158;8.626;2022-07-23T06:08:31;7.57;;;6.07;;
16173;SDS011;14031;50.158;8.626;2022-07-23T06:10:58;6.25;;;5.65;;
16173;SDS011;14031;50.158;8.626;2022-07-23T06:13:25;6.30;;;5.80;;
16173;SDS011;14031;50.158;8.626;2022-07-23T06:15:54;6.28;;;5.78;;
16173;SDS011;14031;50.158;8.626;2022-07-23T06:18:21;5.50;;;5.20;;
16173;SDS011;14031;50.158;8.626;2022-07-23T06:20:47;8.15;;;5.97;;
16173;SDS011;14031;50.158;8.626;2022-07-23T06:23:14;5.28;;;4.97;;
16173;SDS011;14031;50.158;8.626;2022-07-23T06:25:41;6.07;;;5.68;;
16173;SDS011;14031;50.158;8.626;2022-07-23T06:28:08;5.95;;;5.45;;
16173;SDS011;14031;50.158;8.626;2022-07-23T06:30:35;5.50;;;5.10;;
16173;SDS011;14031;50.158;8.626;2022-07-23T06:33:03;5.72;;;5.43;;
16173;SDS011;14031;50.158;8.626;2022-07-23T06:35:30;5.70;;;5.30;;
16173;SDS011;14031;50.158;8.626;2022-07-23T06:37:58;6.53;;;5.07;;
16173;SDS011;14031;50.158;8.626;2022-07-23T06:40:25;6.18;;;5.68;;
16173;SDS011;14031;50.158;8.626;2022-07-23T06:42:52;9.00;;;8.30;;
16173;SDS011;14031;50.158;8.626;2022-07-23T06:45:19;6.25;;;5.57;;
16173;SDS011;14031;50.158;8.626;2022-07-23T06:47:46;5.32;;;4.95;;
16173;SDS011;14031;50.158;8.626;2022-07-23T06:50:14;5.43;;;5.13;;
16173;SDS011;14031;50.158;8.626;2022-07-23T06:52:41;5.30;;;5.00;;
16173;SDS011;14031;50.158;8.626;2022-07-23T06:55:08;4.88;;;4.57;;
16173;SDS011;14031;50.158;8.626;2022-07-23T06:57:35;5.07;;;4.68;;
16173;SDS011;14031;50.158;8.626;2022-07-23T07:00:02;4.78;;;4.47;;
16173;SDS011;14031;50.158;8.626;2022-07-23T07:02:30;5.10;;;4.80;;
16173;SDS011;14031;50.158;8.626;2022-07-23T07:04:57;4.75;;;4.45;;
16173;SDS011;14031;50.158;8.626;2022-07-23T07:07:26;4.60;;;4.30;;
16173;SDS011;14031;50.158;8.626;2022-07-23T07:09:53;5.15;;;4.82;;
16173;SDS011;14031;50.158;8.626;2022-07-23T07:12:20;4.70;;;4.40;;
16173;SDS011;14031;50.158;8.626;2022-07-23T07:14:46;4.72;;;4.45;;
16173;SDS011;14031;50.158;8.626;2022-07-23T07:17:13;4.18;;;3.80;;
16173;SDS011;14031;50.158;8.626;2022-07-23T07:19:41;4.75;;;4.28;;
16173;SDS011;14031;50.158;8.626;2022-07-23T07:22:07;8.73;;;4.10;;
16173;SDS011;14031;50.158;8.626;2022-07-23T07:24:36;4.80;;;4.35;;
16173;SDS011;14031;50.158;8.626;2022-07-23T07:27:03;4.00;;;3.70;;
16173;SDS011;14031;50.158;8.626;2022-07-23T07:29:30;3.85;;;3.65;;
16173;SDS011;14031;50.158;8.626;2022-07-23T07:31:56;5.10;;;3.92;;
16173;SDS011;14031;50.158;8.626;2022-07-23T07:34:23;4.10;;;3.75;;
16173;SDS011;14031;50.158;8.626;2022-07-23T07:36:50;4.18;;;3.88;;
16173;SDS011;14031;50.158;8.626;2022-07-23T07:39:17;4.28;;;3.88;;
16173;SDS011;14031;50.158;8.626;2022-07-23T07:41:45;3.72;;;3.53;;
16173;SDS011;14031;50.158;8.626;2022-07-23T07:44:12;4.13;;;3.80;;
16173;SDS011;14031;50.158;8.626;2022-07-23T07:46:39;4.00;;;3.80;;
16173;SDS011;14031;50.158;8.626;2022-07-23T07:49:06;4.57;;;3.53;;
16173;SDS011;14031;50.158;8.626;2022-07-23T07:51:33;3.75;;;3.53;;
16173;SDS011;14031;50.158;8.626;2022-07-23T07:54:00;4.28;;;3.97;;
16173;SDS011;14031;50.158;8.626;2022-07-23T07:56:27;4.07;;;3.88;;
16173;SDS011;14031;50.158;8.626;2022-07-23T07:58:55;5.28;;;3.78;;
16173;SDS011;14031;50.158;8.626;2022-07-23T08:01:23;3.75;;;3.55;;
16173;SDS011;14031;50.158;8.626;2022-07-23T08:03:50;4.03;;;3.72;;
16173;SDS011;14031;50.158;8.626;2022-07-23T08:06:17;5.20;;;3.88;;
16173;SDS011;14031;50.158;8.626;2022-07-23T08:08:44;3.92;;;3.63;;
16173;SDS011;14031;50.158;8.626;2022-07-23T08:11:10;4.20;;;3.90;;
16173;SDS011;14031;50.158;8.626;2022-07-23T08:13:37;4.75;;;4.35;;
16173;SDS011;14031;50.158;8.626;2022-07-23T08:16:06;3.92;;;3.72;;
16173;SDS011;14031;50.158;8.626;2022-07-23T08:18:33;4.00;;;3.78;;
16173;SDS011;14031;50.158;8.626;2022-07-23T08:21:00;4.93;;;3.80;;
16173;SDS011;14031;50.158;8.626;2022-07-23T08:23:27;4.63;;;4.28;;
16173;SDS011;14031;50.158;8.626;2022-07-23T08:25:54;4.05;;;3.85;;
16173;SDS011;14031;50.158;8.626;2022-07-23T08:28:21;4.10;;;3.90;;
16173;SDS011;14031;50.158;8.626;2022-07-23T08:30:48;3.75;;;3.55;;
16173;SDS011;14031;50.158;8.626;2022-07-23T08:33:17;5.25;;;3.50;;
16173;SDS011;14031;50.158;8.626;2022-07-23T08:35:46;4.65;;;3.47;;
16173;SDS011;14031;50.158;8.626;2022-07-23T08:38:15;4.30;;;3.92;;
16173;SDS011;14031;50.158;8.626;2022-07-23T08:40:43;3.92;;;3.72;;
16173;SDS011;14031;50.158;8.626;2022-07-23T08:43:12;4.15;;;3.85;;
16173;SDS011;14031;50.158;8.626;2022-07-23T08:45:41;5.55;;;4.00;;
16173;SDS011;14031;50.158;8.626;2022-07-23T08:48:11;4.07;;;3.78;;
16173;SDS011;14031;50.158;8.626;2022-07-23T08:50:42;4.10;;;3.90;;
16173;SDS011;14031;50.158;8.626;2022-07-23T08:53:09;4.03;;;3.60;;
16173;SDS011;14031;50.158;8.626;2022-07-23T08:55:37;4.72;;;4.30;;
16173;SDS011;14031;50.158;8.626;2022-07-23T08:58:04;4.82;;;4.35;;
16173;SDS011;14031;50.158;8.626;2022-07-23T09:00:31;4.68;;;4.38;;
16173;SDS011;14031;50.158;8.626;2022-07-23T09:02:59;4.43;;;4.03;;
16173;SDS011;14031;50.158;8.626;2022-07-23T09:05:25;4.13;;;3.85;;
16173;SDS011;14031;50.158;8.626;2022-07-23T09:08:12;3.97;;;3.78;;
16173;SDS011;14031;50.158;8.626;2022-07-23T09:10:45;4.72;;;4.30;;
16173;SDS011;14031;50.158;8.626;2022-07-23T09:13:26;4.78;;;4.47;;
16173;SDS011;14031;50.158;8.626;2022-07-23T09:15:55;6.53;;;4.78;;
16173;SDS011;14031;50.158;8.626;2022-07-23T09:18:40;4.60;;;4.30;;
16173;SDS011;14031;50.158;8.626;2022-07-23T09:21:10;4.30;;;4.10;;
16173;SDS011;14031;50.158;8.626;2022-07-23T09:23:41;4.38;;;4.18;;
16173;SDS011;14031;50.158;8.626;2022-07-23T09:26:22;4.47;;;4.28;;
16173;SDS011;14031;50.158;8.626;2022-07-23T09:28:58;3.85;;;3.65;;
16173;SDS011;14031;50.158;8.626;2022-07-23T09:31:30;3.65;;;3.35;;
16173;SDS011;14031;50.158;8.626;2022-07-23T09:34:09;4.30;;;4.10;;
16173;SDS011;14031;50.158;8.626;2022-07-23T09:36:38;3.95;;;3.75;;
16173;SDS011;14031;50.158;8.626;2022-07-23T09:39:07;3.65;;;3.45;;
16173;SDS011;14031;50.158;8.626;2022-07-23T09:41:35;3.47;;;3.38;;
16173;SDS011;14031;50.158;8.626;2022-07-23T09:44:07;3.95;;;3.75;;
16173;SDS011;14031;50.158;8.626;2022-07-23T09:46:35;3.70;;;3.50;;
16173;SDS011;14031;50.158;8.626;2022-07-23T09:49:10;3.90;;;3.70;;
16173;SDS011;14031;50.158;8.626;2022-07-23T09:51:46;4.32;;;4.03;;
16173;SDS011;14031;50.158;8.626;2022-07-23T09:54:29;4.30;;;4.00;;
16173;SDS011;14031;50.158;8.626;2022-07-23T09:56:58;3.85;;;3.55;;
16173;SDS011;14031;50.158;8.626;2022-07-23T09:59:28;3.85;;;3.50;;
16173;SDS011;14031;50.158;8.626;2022-07-23T10:01:57;3.80;;;3.50;;
16173;SDS011;14031;50.158;8.626;2022-07-23T10:04:26;4.13;;;3.88;;
16173;SDS011;14031;50.158;8.626;2022-07-23T10:06:55;4.15;;;3.90;;
16173;SDS011;14031;50.158;8.626;2022-07-23T10:09:24;3.85;;;3.63;;
16173;SDS011;14031;50.158;8.626;2022-07-23T10:11:55;3.90;;;3.58;;
16173;SDS011;14031;50.158;8.626;2022-07-23T10:14:34;4.20;;;3.95;;
16173;SDS011;14031;50.158;8.626;2022-07-23T10:17:01;3.53;;;3.33;;
16173;SDS011;14031;50.158;8.626;2022-07-23T10:19:29;3.58;;;3.38;;
16173;SDS011;14031;50.158;8.626;2022-07-23T10:21:57;3.90;;;3.55;;
16173;SDS011;14031;50.158;8.626;2022-07-23T10:24:34;4.07;;;3.80;;
16173;SDS011;14031;50.158;8.626;2022-07-23T10:27:15;3.55;;;3.40;;
16173;SDS011;14031;50.158;8.626;2022-07-23T10:30:01;3.55;;;3.45;;
16173;SDS011;14031;50.158;8.626;2022-07-23T10:32:35;3.70;;;3.50;;
16173;SDS011;14031;50.158;8.626;2022-07-23T10:35:13;3.90;;;3.70;;
16173;SDS011;14031;50.158;8.626;2022-07-23T10:37:46;3.40;;;3.20;;
16173;SDS011;14031;50.158;8.626;2022-07-23T10:40:16;3.53;;;3.33;;
16173;SDS011;14031;50.158;8.626;2022-07-23T10:42:46;4.07;;;3.78;;
16173;SDS011;14031;50.158;8.626;2022-07-23T10:45:27;3.90;;;3.70;;
16173;SDS011;14031;50.158;8.626;2022-07-23T10:48:11;3.50;;;3.30;;
16173;SDS011;14031;50.158;8.626;2022-07-23T10:50:40;3.28;;;3.15;;
16173;SDS011;14031;50.158;8.626;2022-07-23T10:53:08;3.20;;;3.10;;
16173;SDS011;14031;50.158;8.626;2022-07-23T10:55:51;3.70;;;3.50;;
16173;SDS011;14031;50.158;8.626;2022-07-23T10:58:20;3.50;;;3.30;;
16173;SDS011;14031;50.158;8.626;2022-07-23T11:00:49;3.42;;;3.33;;
16173;SDS011;14031;50.158;8.626;2022-07-23T11:03:32;3.40;;;3.30;;
16173;SDS011;14031;50.158;8.626;2022-07-23T11:06:01;3.78;;;3.58;;
16173;SDS011;14031;50.158;8.626;2022-07-23T11:08:29;3.55;;;3.35;;
16173;SDS011;14031;50.158;8.626;2022-07-23T11:11:07;3.75;;;3.35;;
16173;SDS011;14031;50.158;8.626;2022-07-23T11:13:38;3.53;;;3.42;;
16173;SDS011;14031;50.158;8.626;2022-07-23T11:16:17;3.90;;;3.60;;
16173;SDS011;14031;50.158;8.626;2022-07-23T11:19:06;3.80;;;3.50;;
16173;SDS011;14031;50.158;8.626;2022-07-23T11:21:40;3.75;;;3.53;;
16173;SDS011;14031;50.158;8.626;2022-07-23T11:24:08;3.90;;;3.55;;
16173;SDS011;14031;50.158;8.626;2022-07-23T11:29:45;3.83;;;3.63;;
16173;SDS011;14031;50.158;8.626;2022-07-23T11:35:21;3.33;;;3.22;;
16173;SDS011;14031;50.158;8.626;2022-07-23T11:37:49;3.72;;;3.47;;
16173;SDS011;14031;50.158;8.626;2022-07-23T11:40:26;4.10;;;3.80;;
16173;SDS011;14031;50.158;8.626;2022-07-23T11:43:16;4.15;;;3.85;;
16173;SDS011;14031;50.158;8.626;2022-07-23T11:45:46;4.97;;;4.68;;
16173;SDS011;14031;50.158;8.626;2022-07-23T11:48:16;9.65;;;9.05;;
16173;SDS011;14031;50.158;8.626;2022-07-23T11:50:44;5.47;;;3.80;;
16173;SDS011;14031;50.158;8.626;2022-07-23T11:53:12;3.92;;;3.72;;
16173;SDS011;14031;50.158;8.626;2022-07-23T11:55:39;4.03;;;3.70;;
16173;SDS011;14031;50.158;8.626;2022-07-23T11:58:06;4.47;;;3.97;;
16173;SDS011;14031;50.158;8.626;2022-07-23T12:00:33;14.85;;;6.45;;
16173;SDS011;14031;50.158;8.626;2022-07-23T12:03:03;3.88;;;3.58;;
16173;SDS011;14031;50.158;8.626;2022-07-23T12:05:32;4.18;;;3.90;;
16173;SDS011;14031;50.158;8.626;2022-07-23T12:08:01;4.00;;;3.80;;
16173;SDS011;14031;50.158;8.626;2022-07-23T12:10:30;3.85;;;3.65;;
16173;SDS011;14031;50.158;8.626;2022-07-23T12:13:01;4.43;;;4.22;;
16173;SDS011;14031;50.158;8.626;2022-07-23T12:15:30;4.07;;;3.88;;
16173;SDS011;14031;50.158;8.626;2022-07-23T12:18:01;4.18;;;3.83;;
16173;SDS011;14031;50.158;8.626;2022-07-23T12:20:33;3.72;;;3.53;;
16173;SDS011;14031;50.158;8.626;2022-07-23T12:23:03;4.35;;;4.07;;
16173;SDS011;14031;50.158;8.626;2022-07-23T12:25:32;3.65;;;3.35;;
16173;SDS011;14031;50.158;8.626;2022-07-23T12:28:03;4.22;;;3.92;;
16173;SDS011;14031;50.158;8.626;2022-07-23T12:30:32;36.78;;;8.95;;
16173;SDS011;14031;50.158;8.626;2022-07-23T12:33:02;9.25;;;4.45;;
16173;SDS011;14031;50.158;8.626;2022-07-23T12:35:31;4.28;;;4.05;;
16173;SDS011;14031;50.158;8.626;2022-07-23T12:38:00;4.47;;;4.13;;
16173;SDS011;14031;50.158;8.626;2022-07-23T12:40:29;4.60;;;4.18;;
16173;SDS011;14031;50.158;8.626;2022-07-23T12:42:58;4.68;;;4.35;;
16173;SDS011;14031;50.158;8.626;2022-07-23T12:45:28;4.03;;;3.83;;
16173;SDS011;14031;50.158;8.626;2022-07-23T12:48:15;4.20;;;4.00;;
16173;SDS011;14031;50.158;8.626;2022-07-23T12:50:44;4.03;;;3.72;;
16173;SDS011;14031;50.158;8.626;2022-07-23T12:53:16;4.80;;;4.55;;
16173;SDS011;14031;50.158;8.626;2022-07-23T12:55:44;5.07;;;4.68;;
16173;SDS011;14031;50.158;8.626;2022-07-23T12:58:13;4.25;;;3.95;;
16173;SDS011;14031;50.158;8.626;2022-07-23T13:00:55;4.70;;;4.15;;
16173;SDS011;14031;50.158;8.626;2022-07-23T13:03:26;4.53;;;3.67;;
16173;SDS011;14031;50.158;8.626;2022-07-23T13:05:55;4.70;;;4.40;;
16173;SDS011;14031;50.158;8.626;2022-07-23T13:08:22;3.67;;;3.53;;
16173;SDS011;14031;50.158;8.626;2022-07-23T13:10:50;5.03;;;3.97;;
16173;SDS011;14031;50.158;8.626;2022-07-23T13:13:19;4.53;;;4.30;;
16173;SDS011;14031;50.158;8.626;2022-07-23T13:15:47;4.25;;;4.05;;
16173;SDS011;14031;50.158;8.626;2022-07-23T13:18:14;4.05;;;3.85;;
16173;SDS011;14031;50.158;8.626;2022-07-23T13:20:43;3.92;;;3.72;;
16173;SDS011;14031;50.158;8.626;2022-07-23T13:23:10;4.32;;;3.95;;
16173;SDS011;14031;50.158;8.626;2022-07-23T13:25:37;4.07;;;3.88;;
16173;SDS011;14031;50.158;8.626;2022-07-23T13:28:04;4.40;;;4.20;;
16173;SDS011;14031;50.158;8.626;2022-07-23T13:30:31;4.75;;;4.25;;
16173;SDS011;14031;50.158;8.626;2022-07-23T13:33:01;4.28;;;3.97;;
16173;SDS011;14031;50.158;8.626;2022-07-23T13:35:29;5.53;;;4.70;;
16173;SDS011;14031;50.158;8.626;2022-07-23T13:37:57;4.60;;;4.30;;
16173;SDS011;14031;50.158;8.626;2022-07-23T13:40:24;5.45;;;4.95;;
16173;SDS011;14031;50.158;8.626;2022-07-23T13:42:51;4.90;;;4.60;;
16173;SDS011;14031;50.158;8.626;2022-07-23T13:45:18;4.80;;;4.50;;
16173;SDS011;14031;50.158;8.626;2022-07-23T13:47:45;4.55;;;4.25;;
16173;SDS011;14031;50.158;8.626;2022-07-23T13:50:12;4.72;;;4.32;;
16173;SDS011;14031;50.158;8.626;2022-07-23T13:52:41;32.10;;;7.30;;
16173;SDS011;14031;50.158;8.626;2022-07-23T13:55:09;6.20;;;4.05;;
16173;SDS011;14031;50.158;8.626;2022-07-23T13:57:36;4.70;;;4.50;;
16173;SDS011;14031;50.158;8.626;2022-07-23T14:00:04;5.63;;;5.13;;
16173;SDS011;14031;50.158;8.626;2022-07-23T14:02:34;4.22;;;3.90;;
16173;SDS011;14031;50.158;8.626;2022-07-23T14:05:02;4.38;;;4.10;;
16173;SDS011;14031;50.158;8.626;2022-07-23T14:07:30;5.45;;;4.25;;
16173;SDS011;14031;50.158;8.626;2022-07-23T14:09:56;4.25;;;3.95;;
16173;SDS011;14031;50.158;8.626;2022-07-23T14:12:25;4.70;;;4.43;;
16173;SDS011;14031;50.158;8.626;2022-07-23T14:14:52;6.53;;;4.15;;
16173;SDS011;14031;50.158;8.626;2022-07-23T14:17:19;4.30;;;4.10;;
16173;SDS011;14031;50.158;8.626;2022-07-23T14:19:46;4.47;;;4.20;;
16173;SDS011;14031;50.158;8.626;2022-07-23T14:22:13;4.22;;;3.88;;
16173;SDS011;14031;50.158;8.626;2022-07-23T14:24:40;4.13;;;3.83;;
16173;SDS011;14031;50.158;8.626;2022-07-23T14:27:07;5.20;;;3.97;;
16173;SDS011;14031;50.158;8.626;2022-07-23T14:29:36;6.38;;;4.10;;
16173;SDS011;14031;50.158;8.626;2022-07-23T14:32:03;5.57;;;5.25;;
16173;SDS011;14031;50.158;8.626;2022-07-23T14:34:31;4.47;;;4.07;;
16173;SDS011;14031;50.158;8.626;2022-07-23T14:36:58;4.80;;;4.07;;
16173;SDS011;14031;50.158;8.626;2022-07-23T14:39:26;3.95;;;3.75;;
16173;SDS011;14031;50.158;8.626;2022-07-23T14:41:52;4.50;;;4.22;;
16173;SDS011;14031;50.158;8.626;2022-07-23T14:44:20;4.15;;;3.88;;
16173;SDS011;14031;50.158;8.626;2022-07-23T14:46:48;4.35;;;4.15;;
16173;SDS011;14031;50.158;8.626;2022-07-23T14:49:15;4.00;;;3.80;;
16173;SDS011;14031;50.158;8.626;2022-07-23T14:51:42;4.85;;;4.55;;
16173;SDS011;14031;50.158;8.626;2022-07-23T14:54:09;4.63;;;4.22;;
16173;SDS011;14031;50.158;8.626;2022-07-23T14:56:36;4.30;;;4.00;;
16173;SDS011;14031;50.158;8.626;2022-07-23T14:59:04;4.47;;;4.07;;
16173;SDS011;14031;50.158;8.626;2022-07-23T15:01:31;4.40;;;4.10;;